createdAt,value
2018-09-09T00:00:35.025Z,4.33
2018-09-09T00:03:05.283Z,5.40
2018-09-09T00:05:35.788Z,5.20
2018-09-09T00:08:06.645Z,4.90
2018-09-09T00:10:37.144Z,5.13
2018-09-09T00:13:07.813Z,4.50
2018-09-09T00:15:38.575Z,4.20
2018-09-09T00:18:09.415Z,4.53
2018-09-09T00:20:40.011Z,4.07
2018-09-09T00:23:10.720Z,4.47
2018-09-09T00:25:41.244Z,4.50
2018-09-09T00:28:12.054Z,4.50
2018-09-09T00:30:42.564Z,4.40
2018-09-09T00:33:13.044Z,4.97
2018-09-09T00:35:43.576Z,4.10
2018-09-09T00:38:14.166Z,4.90
2018-09-09T00:40:44.719Z,4.60
2018-09-09T00:43:15.247Z,4.90
2018-09-09T00:45:46.085Z,4.90
2018-09-09T00:48:16.577Z,4.50
2018-09-09T00:50:52.099Z,4.73
2018-09-09T00:53:46.068Z,5.40
2018-09-09T00:56:17.392Z,5.40
2018-09-09T00:58:49.909Z,5.10
2018-09-09T01:01:20.636Z,5.67
2018-09-09T01:03:51.819Z,5.20
2018-09-09T01:06:22.677Z,4.60
2018-09-09T01:08:54.075Z,5.30
2018-09-09T01:11:24.920Z,4.97
2018-09-09T01:13:55.640Z,5.67
2018-09-09T01:16:26.279Z,5.30
2018-09-09T01:18:56.880Z,6.37
2018-09-09T01:21:27.903Z,6.00
2018-09-09T01:23:58.624Z,5.90
2018-09-09T01:26:29.308Z,5.50
2018-09-09T01:28:59.802Z,5.70
2018-09-09T01:31:30.339Z,4.73
2018-09-09T01:34:01.589Z,5.53
2018-09-09T01:36:32.168Z,6.37
2018-09-09T01:39:02.903Z,5.60
2018-09-09T01:41:34.639Z,6.47
2018-09-09T01:44:05.178Z,6.07
2018-09-09T01:46:35.857Z,5.60
2018-09-09T01:49:06.964Z,6.07
2018-09-09T01:51:37.181Z,5.83
2018-09-09T01:54:07.960Z,6.10
2018-09-09T01:56:38.283Z,5.40
2018-09-09T01:59:10.453Z,5.70
2018-09-09T02:01:41.084Z,6.33
2018-09-09T02:04:11.958Z,5.87
2018-09-09T02:06:42.452Z,6.63
2018-09-09T02:09:14.156Z,5.73
2018-09-09T02:11:45.452Z,7.10
2018-09-09T02:14:16.139Z,6.70
2018-09-09T02:16:46.355Z,6.20
2018-09-09T02:19:16.857Z,7.23
2018-09-09T02:21:47.445Z,6.27
2018-09-09T02:24:17.954Z,6.60
2018-09-09T02:26:48.608Z,6.90
2018-09-09T02:29:19.320Z,6.30
2018-09-09T02:31:49.905Z,5.60
2018-09-09T02:34:20.419Z,6.30
2018-09-09T02:36:50.932Z,7.30
2018-09-09T02:39:21.752Z,6.53
2018-09-09T02:41:52.588Z,6.93
2018-09-09T02:44:24.931Z,7.40
2018-09-09T02:46:55.650Z,6.60
2018-09-09T02:49:26.016Z,6.97
2018-09-09T02:51:56.556Z,6.43
2018-09-09T02:54:27.467Z,6.40
2018-09-09T02:56:58.344Z,6.93
2018-09-09T02:59:29.070Z,6.70
2018-09-09T03:01:59.617Z,6.50
2018-09-09T03:04:30.109Z,7.07
2018-09-09T03:07:00.628Z,6.50
2018-09-09T03:09:31.320Z,7.03
2018-09-09T03:12:01.700Z,6.40
2018-09-09T03:14:33.622Z,5.70
2018-09-09T03:17:04.429Z,6.07
2018-09-09T03:19:35.138Z,6.27
2018-09-09T03:22:05.639Z,5.90
2018-09-09T03:24:36.238Z,6.90
2018-09-09T03:27:06.798Z,6.60
2018-09-09T03:29:38.043Z,7.23
2018-09-09T03:33:11.436Z,7.10
2018-09-09T03:35:41.915Z,7.23
2018-09-09T03:38:12.646Z,7.47
2018-09-09T03:40:42.949Z,7.33
2018-09-09T03:43:13.780Z,7.30
2018-09-09T03:45:44.310Z,6.37
2018-09-09T03:48:14.921Z,7.33
2018-09-09T03:50:45.387Z,7.80
2018-09-09T03:53:16.295Z,5.90
2018-09-09T03:55:46.780Z,6.53
2018-09-09T03:58:18.759Z,6.60
2018-09-09T04:00:49.277Z,6.53
2018-09-09T04:03:19.526Z,7.43
2018-09-09T04:05:51.322Z,6.37
2018-09-09T04:08:21.860Z,6.47
2018-09-09T04:10:53.433Z,6.70
2018-09-09T04:13:23.703Z,6.80
2018-09-09T04:15:54.232Z,7.33
2018-09-09T04:18:24.746Z,5.80
2018-09-09T04:20:55.444Z,6.70
2018-09-09T04:23:26.248Z,6.13
2018-09-09T04:25:56.798Z,6.03
2018-09-09T04:28:27.314Z,7.00
2018-09-09T04:30:57.952Z,5.97
2018-09-09T04:33:29.071Z,7.10
2018-09-09T04:35:59.566Z,6.40
2018-09-09T04:38:30.059Z,6.07
2018-09-09T04:41:00.573Z,7.00
2018-09-09T04:43:30.799Z,6.00
2018-09-09T04:46:01.360Z,5.53
2018-09-09T04:48:31.873Z,6.03
2018-09-09T04:51:02.440Z,6.40
2018-09-09T04:53:32.925Z,5.77
2018-09-09T04:56:03.479Z,5.63
2018-09-09T04:58:34.110Z,5.90
2018-09-09T05:01:04.620Z,5.70
2018-09-09T05:03:35.687Z,5.00
2018-09-09T05:06:06.395Z,5.83
2018-09-09T05:08:36.750Z,5.70
2018-09-09T05:11:07.566Z,5.10
2018-09-09T05:13:37.820Z,6.23
2018-09-09T05:16:08.340Z,6.63
2018-09-09T05:18:38.599Z,6.20
2018-09-09T05:21:09.951Z,6.43
2018-09-09T05:23:40.554Z,5.60
2018-09-09T05:26:11.048Z,5.50
2018-09-09T05:28:41.616Z,5.53
2018-09-09T05:31:12.108Z,5.60
2018-09-09T05:33:42.963Z,5.53
2018-09-09T05:36:13.800Z,6.07
2018-09-09T05:38:44.040Z,5.50
2018-09-09T05:41:14.912Z,5.63
2018-09-09T05:43:46.137Z,4.93
2018-09-09T05:46:16.969Z,5.53
2018-09-09T05:48:47.490Z,6.57
2018-09-09T05:51:17.909Z,5.70
2018-09-09T05:53:48.433Z,5.70
2018-09-09T05:56:19.171Z,6.40
2018-09-09T05:58:50.728Z,5.90
2018-09-09T06:01:21.295Z,6.30
2018-09-09T06:03:51.549Z,6.50
2018-09-09T06:06:22.064Z,5.80
2018-09-09T06:08:52.563Z,5.90
2018-09-09T06:11:23.135Z,5.50
2018-09-09T06:13:53.953Z,6.27
2018-09-09T06:16:24.448Z,4.80
2018-09-09T06:18:55.360Z,6.10
2018-09-09T06:21:26.147Z,6.00
2018-09-09T06:23:56.677Z,5.80
2018-09-09T06:26:27.414Z,5.83
2018-09-09T06:28:57.727Z,5.70
2018-09-09T06:31:28.268Z,5.53
2018-09-09T06:33:58.538Z,5.97
2018-09-09T06:36:30.049Z,5.17
2018-09-09T06:39:00.365Z,5.97
2018-09-09T06:41:31.269Z,4.53
2018-09-09T06:44:03.078Z,5.23
2018-09-09T06:46:33.580Z,5.60
2018-09-09T06:49:04.649Z,6.20
2018-09-09T06:51:35.229Z,5.90
2018-09-09T06:54:05.800Z,5.60
2018-09-09T06:56:36.302Z,5.20
2018-09-09T06:59:06.585Z,5.50
2018-09-09T07:01:36.802Z,5.70
2018-09-09T07:04:07.348Z,4.97
2018-09-09T07:06:37.831Z,5.83
2018-09-09T07:09:10.121Z,5.50
2018-09-09T07:11:40.708Z,5.53
2018-09-09T07:14:11.532Z,5.70
2018-09-09T07:16:42.142Z,5.27
2018-09-09T07:19:12.697Z,5.20
2018-09-09T07:21:43.961Z,5.57
2018-09-09T07:24:14.594Z,5.20
2018-09-09T07:26:45.124Z,5.30
2018-09-09T07:29:15.398Z,5.33
2018-09-09T07:31:46.164Z,4.40
2018-09-09T07:34:17.173Z,5.03
2018-09-09T07:36:47.861Z,5.30
2018-09-09T07:39:19.949Z,5.40
2018-09-09T07:41:50.533Z,4.60
2018-09-09T07:44:21.256Z,6.20
2018-09-09T07:46:51.758Z,6.13
2018-09-09T07:49:22.519Z,7.07
2018-09-09T07:51:53.246Z,5.70
2018-09-09T07:54:23.661Z,5.83
2018-09-09T07:56:54.187Z,6.00
2018-09-09T07:59:24.721Z,5.90
2018-09-09T08:01:55.436Z,6.30
2018-09-09T08:04:25.819Z,6.90
2018-09-09T08:06:56.371Z,6.80
2018-09-09T08:09:27.183Z,7.17
2018-09-09T08:11:57.795Z,6.43
2018-09-09T08:14:28.471Z,6.57
2018-09-09T08:16:58.998Z,6.60
2018-09-09T08:19:29.488Z,6.43
2018-09-09T08:21:59.975Z,6.23
2018-09-09T08:24:30.717Z,6.83
2018-09-09T08:27:01.196Z,6.00
2018-09-09T08:29:31.829Z,6.50
2018-09-09T08:32:02.878Z,7.30
2018-09-09T08:34:33.697Z,7.17
2018-09-09T08:37:04.288Z,6.60
2018-09-09T08:39:34.552Z,6.77
2018-09-09T08:42:05.338Z,6.90
2018-09-09T08:44:36.084Z,6.53
2018-09-09T08:47:06.632Z,6.60
2018-09-09T08:49:37.169Z,6.67
2018-09-09T08:52:07.763Z,7.13
2018-09-09T08:54:43.469Z,6.80
2018-09-09T08:57:14.520Z,6.73
2018-09-09T08:59:45.092Z,6.47
2018-09-09T09:02:15.698Z,7.63
2018-09-09T09:04:46.434Z,6.50
2018-09-09T09:07:17.041Z,6.60
2018-09-09T09:09:47.742Z,6.50
2018-09-09T09:12:18.027Z,6.97
2018-09-09T09:14:48.746Z,6.70
2018-09-09T09:17:19.437Z,7.17
2018-09-09T09:19:49.951Z,6.13
2018-09-09T09:22:20.163Z,5.90
2018-09-09T09:24:50.395Z,6.60
2018-09-09T09:27:20.940Z,6.40
2018-09-09T09:29:58.487Z,5.60
2018-09-09T09:32:29.023Z,6.23
2018-09-09T09:34:59.333Z,5.63
2018-09-09T09:37:31.003Z,6.30
2018-09-09T09:40:09.673Z,5.83
2018-09-09T09:42:39.958Z,5.13
2018-09-09T09:45:11.704Z,6.20
2018-09-09T09:47:42.457Z,6.47
2018-09-09T09:50:12.972Z,7.33
2018-09-09T09:52:43.212Z,6.20
2018-09-09T09:55:13.811Z,5.60
2018-09-09T09:57:44.552Z,6.60
2018-09-09T10:00:20.399Z,5.60
2018-09-09T10:02:51.038Z,5.87
2018-09-09T10:05:22.092Z,6.13
2018-09-09T10:07:52.749Z,5.10
2018-09-09T10:10:23.001Z,4.50
2018-09-09T10:12:53.516Z,4.47
2018-09-09T10:15:24.021Z,5.30
2018-09-09T10:17:54.277Z,5.30
2018-09-09T10:20:24.772Z,5.30
2018-09-09T10:22:55.317Z,5.53
2018-09-09T10:25:25.916Z,5.50
2018-09-09T10:27:56.498Z,5.47
2018-09-09T10:30:27.689Z,5.03
2018-09-09T10:32:57.949Z,4.73
2018-09-09T10:35:28.467Z,4.70
2018-09-09T10:37:59.219Z,5.23
2018-09-09T10:40:29.951Z,3.93
2018-09-09T10:43:00.199Z,3.70
2018-09-09T10:45:30.768Z,3.67
2018-09-09T10:48:01.524Z,3.73
2018-09-09T10:50:31.720Z,3.17
2018-09-09T10:53:02.400Z,3.83
2018-09-09T10:55:32.900Z,3.30
2018-09-09T10:58:03.762Z,4.03
2018-09-09T11:00:34.800Z,3.40
2018-09-09T11:03:05.475Z,3.80
2018-09-09T11:05:36.852Z,3.67
2018-09-09T11:08:08.160Z,3.50
2018-09-09T11:10:39.008Z,3.30
2018-09-09T11:13:09.839Z,3.37
2018-09-09T11:15:42.274Z,3.77
2018-09-09T11:18:14.333Z,3.50
2018-09-09T11:20:54.809Z,3.97
2018-09-09T11:23:25.360Z,6.40
2018-09-09T11:25:56.160Z,4.30
2018-09-09T11:28:27.673Z,5.70
2018-09-09T11:30:58.166Z,4.90
2018-09-09T11:33:28.639Z,3.00
2018-09-09T11:35:59.129Z,3.63
2018-09-09T11:38:29.328Z,3.30
2018-09-09T11:40:59.937Z,3.53
2018-09-09T11:43:30.819Z,4.10
2018-09-09T11:46:03.065Z,3.20
2018-09-09T11:48:33.883Z,3.73
2018-09-09T11:51:04.454Z,3.67
2018-09-09T11:53:40.184Z,3.70
2018-09-09T11:56:10.776Z,3.67
2018-09-09T11:58:41.022Z,3.43
2018-09-09T12:01:11.592Z,2.57
2018-09-09T12:03:42.324Z,3.30
2018-09-09T12:06:14.416Z,2.87
2018-09-09T12:08:44.944Z,2.77
2018-09-09T12:11:15.805Z,3.53
2018-09-09T12:13:46.716Z,3.30
2018-09-09T12:16:18.079Z,3.20
2018-09-09T12:18:49.074Z,3.13
2018-09-09T12:21:24.936Z,3.53
2018-09-09T12:23:56.455Z,3.93
2018-09-09T12:26:28.248Z,3.60
2018-09-09T12:28:59.578Z,3.43
2018-09-09T12:31:30.155Z,2.70
2018-09-09T12:34:01.400Z,3.10
2018-09-09T12:36:32.611Z,3.10
2018-09-09T12:39:03.625Z,3.17
2018-09-09T12:41:39.275Z,3.20
2018-09-09T12:44:15.375Z,2.60
2018-09-09T12:46:51.185Z,3.60
2018-09-09T12:49:46.010Z,3.00
2018-09-09T12:52:26.685Z,2.93
2018-09-09T12:54:57.739Z,3.50
2018-09-09T12:57:28.455Z,3.00
2018-09-09T12:59:58.800Z,3.30
2018-09-09T13:02:30.453Z,3.30
2018-09-09T13:05:00.961Z,3.23
2018-09-09T13:07:31.406Z,3.30
2018-09-09T13:10:01.944Z,2.90
2018-09-09T13:12:38.563Z,3.80
2018-09-09T13:15:10.846Z,3.57
2018-09-09T13:17:41.100Z,3.60
2018-09-09T13:20:11.647Z,3.37
2018-09-09T13:22:42.742Z,3.23
2018-09-09T13:25:13.317Z,3.00
2018-09-09T13:27:43.846Z,2.90
2018-09-09T13:30:14.412Z,3.30
2018-09-09T13:32:44.762Z,3.27
2018-09-09T13:35:15.496Z,2.93
2018-09-09T13:37:46.205Z,2.80
2018-09-09T13:40:16.799Z,3.20
2018-09-09T13:42:47.377Z,3.77
2018-09-09T13:45:17.996Z,2.87
2018-09-09T13:47:48.792Z,3.27
2018-09-09T13:50:19.738Z,3.00
2018-09-09T13:52:50.145Z,3.30
2018-09-09T13:55:20.867Z,3.10
2018-09-09T13:57:51.511Z,3.23
2018-09-09T14:00:21.844Z,3.10
2018-09-09T14:02:52.369Z,3.10
2018-09-09T14:05:22.812Z,3.57
2018-09-09T14:07:53.064Z,3.37
2018-09-09T14:10:28.992Z,3.60
2018-09-09T14:13:11.684Z,3.80
2018-09-09T14:15:44.736Z,3.23
2018-09-09T14:18:15.720Z,3.57
2018-09-09T14:20:47.271Z,3.10
2018-09-09T14:23:18.000Z,3.10
2018-09-09T14:25:49.139Z,3.53
2018-09-09T14:28:19.682Z,2.93
2018-09-09T14:30:50.270Z,2.97
2018-09-09T14:33:21.959Z,2.60
2018-09-09T14:35:52.569Z,2.53
2018-09-09T14:38:25.321Z,2.90
2018-09-09T14:40:55.900Z,3.17
2018-09-09T14:43:27.085Z,2.57
2018-09-09T14:45:57.601Z,3.00
2018-09-09T14:48:28.416Z,3.77
2018-09-09T14:50:58.777Z,3.20
2018-09-09T14:53:30.045Z,3.13
2018-09-09T14:56:31.376Z,2.93
2018-09-09T14:59:03.618Z,3.60
2018-09-09T15:01:34.745Z,3.63
2018-09-09T15:04:05.543Z,3.70
2018-09-09T15:06:36.627Z,3.40
2018-09-09T15:09:09.223Z,3.47
2018-09-09T15:11:40.578Z,3.17
2018-09-09T15:14:11.016Z,2.93
2018-09-09T15:16:41.850Z,3.20
2018-09-09T15:19:13.217Z,3.03
2018-09-09T15:21:43.738Z,3.43
2018-09-09T15:24:14.005Z,3.30
2018-09-09T15:26:44.323Z,2.80
2018-09-09T15:29:14.781Z,3.10
2018-09-09T15:31:45.324Z,3.97
2018-09-09T15:34:16.233Z,3.40
2018-09-09T15:36:46.960Z,2.87
2018-09-09T15:39:17.498Z,3.00
2018-09-09T15:41:50.334Z,3.17
2018-09-09T15:44:24.296Z,3.07
2018-09-09T15:46:54.781Z,3.30
2018-09-09T15:49:25.292Z,3.80
2018-09-09T15:51:55.934Z,3.70
2018-09-09T15:54:26.744Z,3.87
2018-09-09T15:56:56.982Z,3.60
2018-09-09T15:59:27.633Z,3.60
2018-09-09T16:01:57.811Z,3.73
2018-09-09T16:04:28.040Z,3.53
2018-09-09T16:06:59.240Z,4.20
2018-09-09T16:09:29.889Z,3.20
2018-09-09T16:12:00.358Z,3.63
2018-09-09T16:14:30.919Z,4.20
2018-09-09T16:17:01.950Z,3.50
2018-09-09T16:19:36.760Z,3.73
2018-09-09T16:22:07.289Z,3.90
2018-09-09T16:24:37.824Z,3.87
2018-09-09T16:27:08.339Z,4.07
2018-09-09T16:29:41.246Z,4.60
2018-09-09T16:32:11.842Z,3.37
2018-09-09T16:34:43.396Z,4.20
2018-09-09T16:37:15.170Z,4.97
2018-09-09T16:39:47.103Z,4.43
2018-09-09T16:42:25.454Z,4.47
2018-09-09T16:44:59.076Z,4.27
2018-09-09T16:47:29.955Z,4.80
2018-09-09T16:50:01.407Z,5.17
2018-09-09T16:52:34.088Z,4.30
2018-09-09T16:55:11.992Z,4.50
2018-09-09T16:57:49.012Z,4.57
2018-09-09T17:00:23.361Z,4.83
2018-09-09T17:02:54.520Z,4.27
2018-09-09T17:05:30.882Z,5.27
2018-09-09T17:08:01.476Z,5.00
2018-09-09T17:10:33.926Z,4.90
2018-09-09T17:13:07.072Z,4.50
2018-09-09T17:15:47.207Z,4.80
2018-09-09T17:18:41.542Z,5.20
2018-09-09T17:21:20.357Z,4.87
2018-09-09T17:23:59.511Z,5.30
2018-09-09T17:26:30.487Z,5.10
2018-09-09T17:29:01.740Z,5.40
2018-09-09T17:31:32.065Z,5.23
2018-09-09T17:34:03.124Z,4.70
2018-09-09T17:36:34.065Z,5.17
2018-09-09T17:39:06.604Z,5.13
2018-09-09T17:41:44.410Z,5.20
2018-09-09T17:44:17.443Z,5.50
2018-09-09T17:46:50.736Z,6.40
2018-09-09T17:54:55.903Z,7.67
2018-09-09T17:57:27.418Z,6.07
2018-09-09T17:59:57.930Z,4.97
2018-09-09T18:02:29.598Z,5.50
2018-09-09T18:05:06.916Z,5.10
2018-09-09T18:07:43.749Z,5.50
2018-09-09T18:10:14.712Z,4.80
2018-09-09T18:12:45.723Z,5.40
2018-09-09T18:15:16.290Z,4.93
2018-09-09T18:17:46.664Z,5.60
2018-09-09T18:20:17.456Z,4.83
2018-09-09T18:22:48.070Z,4.60
2018-09-09T18:25:18.633Z,4.93
2018-09-09T18:27:48.901Z,5.93
2018-09-09T18:30:19.648Z,4.70
2018-09-09T18:32:50.272Z,5.00
2018-09-09T18:35:20.633Z,5.27
2018-09-09T18:37:51.189Z,5.17
2018-09-09T18:40:21.852Z,5.13
2018-09-09T18:42:52.425Z,5.33
2018-09-09T18:45:23.144Z,4.67
2018-09-09T18:47:54.184Z,5.20
2018-09-09T18:50:25.827Z,5.78
2018-09-09T18:52:56.336Z,5.83
2018-09-09T18:55:27.316Z,6.33
2018-09-09T18:57:58.356Z,5.53
2018-09-09T19:00:28.908Z,6.00
2018-09-09T19:02:59.172Z,6.10
2018-09-09T19:05:30.500Z,5.90
2018-09-09T19:08:01.292Z,7.27
2018-09-09T19:10:31.789Z,6.17
2018-09-09T19:13:02.292Z,7.50
2018-09-09T19:15:32.949Z,8.57
2018-09-09T19:18:03.581Z,6.23
2018-09-09T19:20:34.197Z,6.10
2018-09-09T19:23:05.419Z,6.63
2018-09-09T19:25:36.208Z,6.27
2018-09-09T19:28:07.284Z,5.43
2018-09-09T19:30:38.165Z,5.80
2018-09-09T19:33:09.617Z,5.07
2018-09-09T19:35:40.330Z,4.60
2018-09-09T19:38:10.605Z,4.80
2018-09-09T19:40:41.198Z,5.03
2018-09-09T19:43:11.492Z,4.53
2018-09-09T19:45:42.019Z,5.63
2018-09-09T19:48:12.880Z,5.43
2018-09-09T19:50:43.714Z,5.00
2018-09-09T19:53:14.457Z,4.80
2018-09-09T19:55:45.003Z,5.00
2018-09-09T19:58:15.602Z,4.90
2018-09-09T20:00:46.300Z,5.30
2018-09-09T20:03:16.778Z,5.10
2018-09-09T20:05:47.144Z,5.77
2018-09-09T20:08:17.672Z,5.73
2018-09-09T20:10:47.982Z,5.20
2018-09-09T20:13:18.436Z,4.90
2018-09-09T20:15:48.705Z,5.03
2018-09-09T20:18:19.368Z,4.77
2018-09-09T20:20:49.693Z,4.90
2018-09-09T20:23:20.328Z,5.00
2018-09-09T20:25:50.898Z,5.07
2018-09-09T20:28:21.892Z,5.23
2018-09-09T20:30:52.517Z,4.97
2018-09-09T20:33:22.762Z,4.73
2018-09-09T20:35:53.284Z,4.70
2018-09-09T20:38:23.527Z,5.20
2018-09-09T20:40:53.732Z,5.37
2018-09-09T20:43:24.268Z,5.70
2018-09-09T20:45:55.161Z,5.63
2018-09-09T20:48:25.952Z,5.30
2018-09-09T20:50:56.518Z,5.10
2018-09-09T20:53:27.237Z,5.30
2018-09-09T20:55:59.957Z,5.47
2018-09-09T20:58:30.467Z,5.83
2018-09-09T21:01:00.964Z,5.70
2018-09-09T21:03:32.168Z,5.87
2018-09-09T21:06:02.993Z,5.47
2018-09-09T21:08:33.669Z,5.37
2018-09-09T21:11:04.577Z,6.00
2018-09-09T21:13:35.078Z,6.00
2018-09-09T21:16:05.999Z,6.03
2018-09-09T21:18:36.664Z,5.80
2018-09-09T21:21:07.057Z,6.30
2018-09-09T21:23:37.615Z,5.20
2018-09-09T21:26:08.445Z,5.07
2018-09-09T21:28:39.578Z,4.87
2018-09-09T21:31:10.232Z,4.77
2018-09-09T21:33:40.735Z,5.10
2018-09-09T21:36:11.150Z,5.33
2018-09-09T21:38:41.731Z,5.20
2018-09-09T21:41:11.927Z,4.80
2018-09-09T21:43:42.571Z,5.27
2018-09-09T21:46:13.615Z,4.73
2018-09-09T21:48:44.514Z,5.10
2018-09-09T21:51:15.260Z,5.20
2018-09-09T21:53:45.900Z,6.13
2018-09-09T21:56:16.634Z,5.30
2018-09-09T21:58:47.147Z,5.30
2018-09-09T22:02:21.094Z,5.63
2018-09-09T22:04:51.811Z,4.93
2018-09-09T22:07:22.692Z,5.70
2018-09-09T22:09:53.296Z,5.50
2018-09-09T22:12:24.086Z,5.50
2018-09-09T22:14:54.595Z,4.80
2018-09-09T22:17:25.106Z,4.57
2018-09-09T22:19:55.355Z,4.77
2018-09-09T22:22:25.863Z,5.13
2018-09-09T22:24:56.818Z,4.87
2018-09-09T22:27:27.307Z,4.43
2018-09-09T22:29:58.342Z,4.60
2018-09-09T22:32:28.872Z,4.60
2018-09-09T22:34:59.417Z,5.63
2018-09-09T22:37:30.078Z,4.13
2018-09-09T22:40:00.751Z,5.37
2018-09-09T22:42:35.259Z,4.77
2018-09-09T22:45:08.850Z,4.60
2018-09-09T22:47:39.742Z,5.40
2018-09-09T22:50:10.334Z,5.10
2018-09-09T22:52:41.103Z,4.43
2018-09-09T22:55:12.695Z,5.10
2018-09-09T22:57:43.222Z,5.53
2018-09-09T23:00:13.766Z,4.80
2018-09-09T23:02:44.361Z,5.47
2018-09-09T23:05:15.525Z,4.20
2018-09-09T23:07:45.889Z,5.10
2018-09-09T23:10:16.644Z,5.03
2018-09-09T23:12:47.227Z,5.80
2018-09-09T23:15:22.032Z,5.30
2018-09-09T23:17:54.989Z,6.20
2018-09-09T23:20:25.492Z,6.80
2018-09-09T23:22:55.998Z,6.50
2018-09-09T23:25:26.488Z,5.40
2018-09-09T23:27:57.420Z,5.37
2018-09-09T23:30:27.957Z,7.20
2018-09-09T23:32:59.103Z,6.23
2018-09-09T23:35:29.682Z,6.63
2018-09-09T23:38:00.204Z,7.57
2018-09-09T23:40:31.002Z,6.80
2018-09-09T23:43:01.546Z,7.00
2018-09-09T23:45:32.068Z,6.90
2018-09-09T23:48:02.880Z,7.70
2018-09-09T23:50:33.430Z,6.97
2018-09-09T23:53:03.936Z,6.90
2018-09-09T23:55:34.474Z,7.23
2018-09-09T23:58:04.757Z,6.10
